• Join FlightAware (Why Join?)
  • Login
  • US Flag 
Rudolph Flight #1: Scheduled 
08:51PM EST


 

Airport Tracker/Info


-or-


 

Live Flight TrackerFlight Track Log ✈ N816BG ✈ 24-Jun-2014 ✈ KGRR - KMFE

Flight Track Log - Related Links

Times and Time Zones

All times are in EDT time to prevent confusion due to time zone crossing. See the N816BG flight status page for this flight to view local times or setup timezone preferences in your user account.

Time Position Orientation Groundspeed Altitude Reporting Facility
EDT Latitude Longitude Course Direction KTS MPH feet Rate Location/Type
07:56AM 42.8483 -85.5883 214° Southwest 214 246 2,900  Level Chicago Center
07:57AM 42.7925 -85.6392 214° Southwest 233 268 5,800 2,880 Climbing Chicago Center
07:58AM 42.7361 -85.6950 216° Southwest 245 282 8,900 2,640 Climbing Chicago Center
07:59AM 42.6786 -85.7511 216° Southwest 250 288 11,300 2,400 Climbing Chicago Center
08:00AM 42.6175 -85.8103 215° Southwest 263 303 13,900 2,220 Climbing Chicago Center
08:01AM 42.5556 -85.8697 215° Southwest 270 311 15,900 1,800 Climbing Chicago Center
08:02AM 42.4914 -85.9308 215° Southwest 277 319 17,700 1,680 Climbing Chicago Center
08:03AM 42.4111 -86.0072 215° Southwest 288 331 19,400 1,500 Climbing Chicago Center
08:04AM 42.3428 -86.0744 216° Southwest 299 344 20,800 1,140 Climbing Chicago Center
08:05AM 42.2808 -86.1331 215° Southwest 305 351 21,800 1,200 Climbing Chicago Center
08:06AM 42.2028 -86.2267 222° Southwest 313 360 23,400 1,200 Climbing Chicago Center
08:08AM 42.1411 -86.3139 226° Southwest 318 366 24,300 900 Climbing Chicago Center
08:09AM 42.0769 -86.4044 226° Southwest 328 377 25,300 960 Climbing Chicago Center
08:10AM 42.0158 -86.4936 227° Southwest 330 380 26,400 900 Climbing Chicago Center
08:11AM 41.9531 -86.5867 228° Southwest 333 383 27,200 720 Climbing Chicago Center
08:12AM 41.8700 -86.6903 223° Southwest 342 394 28,000 720 Climbing Chicago Center
08:13AM 41.7986 -86.7564 215° Southwest 346 398 28,700 900 Climbing Chicago Center
08:14AM 41.7039 -86.8442 215° Southwest 347 399 29,900 840 Climbing Chicago Center
08:15AM 41.6258 -86.9169 215° Southwest 344 396 30,500 720 Climbing Chicago Center
08:16AM 41.5472 -86.9886 214° Southwest 343 395 31,400 720 Climbing Chicago Center
08:17AM 41.4714 -87.0589 215° Southwest 335 386 32,000 600 Climbing Chicago Center
08:18AM 41.3931 -87.1294 214° Southwest 336 387 32,700 600 Climbing Chicago Center
08:19AM 41.3167 -87.2014 215° Southwest 335 386 33,300 480 Climbing Chicago Center
08:20AM 41.2408 -87.2711 215° Southwest 334 384 33,800 300 Climbing Chicago Center
08:21AM 41.1478 -87.3553 214° Southwest 335 386 34,000 60 Climbing Chicago Center
08:22AM 41.0667 -87.4300 215° Southwest 347 399 34,000  Level Chicago Center
08:23AM 40.9825 -87.5033 213° Southwest 356 410 34,000  Level Chicago Center
08:24AM 40.8978 -87.5814 215° Southwest 364 419 34,000  Level Chicago Center
08:25AM 40.8092 -87.6597 214° Southwest 376 433 34,000 180 Level Chicago Center
08:26AM 40.7225 -87.7394 215° Southwest 379 436 34,400 420 Climbing Chicago Center
08:27AM 40.6186 -87.8317 214° Southwest 377 434 34,900 240 Climbing Chicago Center
08:28AM 40.5331 -87.9075 214° Southwest 372 428 35,000  Climbing Chicago Center
08:29AM 40.4475 -87.9839 214° Southwest 372 428 35,000  Level Chicago Center
08:30AM 40.3597 -88.0611 214° Southwest 375 432 35,000  Level Chicago Center
08:31AM 40.2719 -88.1378 214° Southwest 376 433 35,000  Level Chicago Center
08:32AM 40.1814 -88.2172 214° Southwest 379 436 35,000  Level Chicago Center
08:33AM 40.0928 -88.2942 214° Southwest 380 437 35,000  Level Chicago Center
08:34AM 39.9867 -88.3872 214° Southwest 381 438 35,000 120 Level Kansas City Center
08:36AM 39.8983 -88.4636 214° Southwest 382 440 35,300 300 Climbing Kansas City Center
08:37AM 39.8103 -88.5394 213° Southwest 382 440 35,700 300 Climbing Kansas City Center
08:38AM 39.7247 -88.6133 214° Southwest 375 432 36,000 120 Climbing Kansas City Center
08:39AM 39.6397 -88.6867 214° Southwest 366 421 36,000  Level Kansas City Center
08:40AM 39.5547 -88.7600 214° Southwest 366 421 36,000  Level Kansas City Center
08:41AM 39.4669 -88.8347 213° Southwest 371 427 36,000  Level Kansas City Center
08:42AM 39.3764 -88.9131 214° Southwest 373 429 36,000  Level Kansas City Center
08:43AM 39.2878 -88.9881 213° Southwest 376 433 36,000  Level Kansas City Center
08:44AM 39.1825 -89.0772 213° Southwest 377 434 36,000  Level Kansas City Center
08:45AM 39.0981 -89.1489 213° Southwest 377 434 36,000  Level Kansas City Center
08:46AM 39.0103 -89.2217 213° Southwest 377 434 36,000  Level Kansas City Center
08:47AM 38.9211 -89.2964 213° Southwest 377 434 36,000  Level Kansas City Center
08:48AM 38.8333 -89.3703 213° Southwest 377 434 36,000  Level Kansas City Center
08:49AM 38.7281 -89.4575 213° Southwest 377 434 36,000  Level Kansas City Center
08:50AM 38.6394 -89.5303 213° Southwest 377 434 36,000  Level Kansas City Center
08:51AM 38.5497 -89.6075 214° Southwest 376 433 36,000  Level Kansas City Center
08:52AM 38.4547 -89.6858 213° Southwest 376 433 36,000  Level Kansas City Center
08:53AM 38.3717 -89.7547 213° Southwest 377 434 36,000  Level Kansas City Center
08:54AM 38.2817 -89.8264 212° Southwest 377 434 36,000  Level Kansas City Center
08:55AM 38.1931 -89.8992 213° Southwest 378 435 36,000  Level Kansas City Center
08:56AM 38.0869 -89.9878 213° Southwest 384 442 36,000  Level Kansas City Center
08:57AM 37.9983 -90.0600 213° Southwest 383 441 36,000  Level Kansas City Center
08:58AM 37.9067 -90.1339 212° Southwest 382 440 36,000  Level Kansas City Center
08:59AM 37.8181 -90.2050 212° Southwest 381 438 36,000  Level Kansas City Center
09:00AM 37.7292 -90.2781 213° Southwest 381 438 36,000  Level Kansas City Center
09:01AM 37.6389 -90.3506 212° Southwest 381 438 36,000  Level Kansas City Center
09:02AM 37.5494 -90.4228 213° Southwest 381 438 36,000  Level Kansas City Center
09:03AM 37.4586 -90.4956 212° Southwest 383 441 36,000  Level Kansas City Center
09:04AM 37.3681 -90.5664 212° Southwest 383 441 36,000  Level Kansas City Center
09:05AM 37.2578 -90.6550 213° Southwest 383 441 36,000  Level Kansas City Center
09:06AM 37.1664 -90.7281 213° Southwest 384 442 36,000  Level Kansas City Center
09:07AM 37.0761 -90.7981 212° Southwest 384 442 36,000  Level Kansas City Center
09:09AM 36.9864 -90.8700 213° Southwest 384 442 36,000  Level Kansas City Center
09:10AM 36.8944 -90.9403 211° Southwest 384 442 36,000  Level Kansas City Center
09:11AM 36.8039 -91.0128 213° Southwest 385 443 36,000  Level Kansas City Center
09:12AM 36.6950 -91.0972 212° Southwest 385 443 36,000  Level Kansas City Center
09:13AM 36.6133 -91.1600 212° Southwest 386 444 36,000  Level Kansas City Center
09:14AM 36.5133 -91.2389 212° Southwest 386 444 36,000  Level Kansas City Center
09:15AM 36.3872 -91.3372 212° Southwest 386 444 36,000  Level Memphis Center
09:16AM 36.2983 -91.4081 213° Southwest 386 444 36,000  Level Memphis Center
09:17AM 36.1892 -91.4908 211° Southwest 386 444 36,000  Level Memphis Center
09:18AM 36.0967 -91.5611 212° Southwest 386 444 36,000  Level Memphis Center
09:19AM 36.0061 -91.6319 212° Southwest 386 444 36,000  Level Memphis Center
09:20AM 35.9122 -91.7006 211° Southwest 386 444 36,000  Level Memphis Center
09:21AM 35.8200 -91.7711 212° Southwest 387 445 36,000  Level Memphis Center
09:22AM 35.7275 -91.8408 211° Southwest 387 445 36,000  Level Memphis Center
09:23AM 35.6178 -91.9236 212° Southwest 387 445 36,000  Level Memphis Center
09:24AM 35.5247 -91.9933 211° Southwest 387 445 36,000  Level Memphis Center
09:25AM 35.4339 -92.0622 212° Southwest 386 444 36,000  Level Memphis Center
09:27AM 35.3400 -92.1319 211° Southwest 387 445 36,000  Level Memphis Center
09:28AM 35.2456 -92.2028 211° Southwest 389 448 36,000  Level Memphis Center
09:29AM 35.1525 -92.2719 211° Southwest 391 450 36,000  Level Memphis Center
09:30AM 35.0583 -92.3431 212° Southwest 391 450 36,000  Level Memphis Center
09:31AM 34.9442 -92.4264 211° Southwest 392 451 36,000  Level Memphis Center
09:32AM 34.8486 -92.4978 212° Southwest 397 457 36,000  Level Memphis Center
09:33AM 34.7522 -92.5681 211° Southwest 398 458 36,000  Level Memphis Center
09:34AM 34.6553 -92.6394 211° Southwest 402 463 36,000  Level Memphis Center
09:35AM 34.5575 -92.7111 211° Southwest 403 464 36,000  Level Memphis Center
09:36AM 34.4597 -92.7833 211° Southwest 405 466 36,000  Level Memphis Center
09:37AM 34.3606 -92.8550 211° Southwest 410 472 36,000  Level Memphis Center
09:38AM 34.2586 -92.9286 211° Southwest 410 472 36,000  Level Memphis Center
09:39AM 34.1392 -93.0150 211° Southwest 413 475 36,000  Level Memphis Center
09:40AM 34.0394 -93.0875 211° Southwest 414 476 36,000  Level Memphis Center
09:41AM 33.9389 -93.1586 210° Southwest 416 479 36,000  Level Memphis Center
09:42AM 33.8392 -93.2317 211° Southwest 416 479 36,000  Level Memphis Center
09:43AM 33.7383 -93.3039 211° Southwest 417 480 36,000  Level Memphis Center
09:44AM 33.6369 -93.3744 210° Southwest 417 480 36,000  Level Memphis Center
09:46AM 33.4778 -93.4903 211° Southwest 419 482 36,000  Level Fort Worth Center
09:47AM 33.3758 -93.5622 211° Southwest 419 482 36,000  Level Fort Worth Center
09:48AM 33.2728 -93.6336 210° Southwest 421 484 36,000  Level Fort Worth Center
09:49AM 33.1772 -93.7189 217° Southwest 421 484 36,000  Level Fort Worth Center
09:50AM 33.1000 -93.8256 229° Southwest 420 483 36,000  Level Fort Worth Center
09:51AM 33.0228 -93.9308 229° Southwest 420 483 36,000  Level Fort Worth Center
09:52AM 32.9317 -94.0564 229° Southwest 415 478 36,000  Level Fort Worth Center
09:53AM 32.8553 -94.1608 229° Southwest 417 480 36,000  Level Fort Worth Center
09:54AM 32.7786 -94.2647 229° Southwest 417 480 36,000  Level Fort Worth Center
09:55AM 32.7011 -94.3686 228° Southwest 418 481 36,000  Level Fort Worth Center
09:56AM 32.6244 -94.4731 229° Southwest 418 481 36,000  Level Fort Worth Center
09:57AM 32.5478 -94.5775 229° Southwest 420 483 36,000  Level Fort Worth Center
09:58AM 32.4542 -94.7025 228° Southwest 421 484 36,000  Level Fort Worth Center
09:59AM 32.3606 -94.7861 217° Southwest 425 489 36,000  Level Fort Worth Center
10:00AM 32.2558 -94.8508 208° Southwest 429 494 36,000  Level Fort Worth Center
10:01AM 32.1475 -94.9175 208° Southwest 429 494 36,000  Level Fort Worth Center
10:02AM 32.0406 -94.9806 207° Southwest 429 494 36,000  Level Fort Worth Center
10:03AM 31.9339 -95.0433 207° Southwest 430 495 36,000  Level Fort Worth Center
10:04AM 31.8067 -95.1175 206° Southwest 429 494 36,000  Level Fort Worth Center
10:05AM 31.6994 -95.1806 207° Southwest 432 497 36,000  Level Fort Worth Center
10:06AM 31.5931 -95.2442 207° Southwest 431 496 36,000  Level Fort Worth Center
10:07AM 31.4847 -95.3072 206° Southwest 436 502 36,000  Level Fort Worth Center
10:08AM 31.3619 -95.3789 206° Southwest 439 505 36,000  Level Fort Worth Center
10:09AM 31.2881 -95.4214 206° Southwest 440 506 36,000  Level Houston Center
10:10AM 31.1564 -95.4969 206° Southwest 441 507 36,000  Level Houston Center
10:11AM 31.0483 -95.5600 207° Southwest 438 504 36,000  Level Houston Center
10:12AM 30.9406 -95.6228 207° Southwest 438 504 36,000  Level Houston Center
10:13AM 30.8322 -95.6850 206° Southwest 437 503 36,000  Level Houston Center
10:14AM 30.7244 -95.7469 206° Southwest 435 501 36,000  Level Houston Center
10:15AM 30.5961 -95.8219 207° Southwest 431 496 36,000  Level Houston Center
10:16AM 30.4878 -95.8839 206° Southwest 433 498 36,000  Level Houston Center
10:17AM 30.3736 -95.9478 206° Southwest 435 501 36,000  Level Houston Center
10:18AM 30.2675 -96.0103 207° Southwest 434 499 36,000  Level Houston Center
10:19AM 30.1636 -96.0678 206° Southwest 433 498 36,000  Level Houston Center
10:21AM 30.0475 -96.1353 207° Southwest 439 505 36,000  Level Houston Center
10:22AM 29.9381 -96.1956 206° Southwest 439 505 36,000  Level Houston Center
10:23AM 29.8089 -96.2697 206° Southwest 436 502 36,000  Level Houston Center
10:24AM 29.6997 -96.3308 206° Southwest 436 502 36,000  Level Houston Center
10:25AM 29.5900 -96.3864 204° Southwest 434 499 36,000  Level Houston Center
10:26AM 29.4783 -96.4408 203° Southwest 434 499 36,000  Level Houston Center
10:27AM 29.3658 -96.4953 203° Southwest 436 502 36,000  Level Houston Center
10:28AM 29.2528 -96.5500 203° Southwest 437 503 36,000  Level Houston Center
10:29AM 29.1378 -96.6067 203° Southwest 438 504 36,000  Level Houston Center
10:30AM 29.0003 -96.6714 202° Southwest 439 505 36,000 -60 Level Houston Center
10:31AM 28.8869 -96.7281 204° Southwest 441 507 35,900  Descending Houston Center
10:32AM 28.7742 -96.7831 203° Southwest 440 506 36,000  Climbing Houston Center
10:33AM 28.6625 -96.8361 203° Southwest 438 504 36,000  Level Houston Center
10:34AM 28.5522 -96.8900 203° Southwest 433 498 36,000  Level Houston Center
10:35AM 28.4417 -96.9422 203° Southwest 431 496 36,000  Level Houston Center
10:36AM 28.3094 -97.0056 203° Southwest 430 495 36,000  Level Houston Center
10:37AM 28.1978 -97.0600 203° Southwest 430 495 36,000  Level Houston Center
10:38AM 28.0869 -97.1125 203° Southwest 427 491 36,000  Level Houston Center
10:39AM 27.9667 -97.1692 203° Southwest 426 490 36,000  Level Houston Center
10:40AM 27.8558 -97.2225 203° Southwest 425 489 36,000  Level Houston Center
10:41AM 27.7456 -97.2747 203° Southwest 424 488 36,000  Level Houston Center
10:42AM 27.6353 -97.3269 203° Southwest 423 487 36,000 -1,200 Level Houston Center
10:43AM 27.5269 -97.3919 208° Southwest 430 495 33,500 -2,400 Descending Houston Center
10:44AM 27.4228 -97.4678 213° Southwest 434 499 31,000 -2,400 Descending Houston Center
10:45AM 27.3200 -97.5439 213° Southwest 434 499 28,600 -2,460 Descending Houston Center
10:46AM 27.2097 -97.6242 213° Southwest 427 491 26,000 -2,460 Descending Houston Center
10:47AM 27.1111 -97.6967 213° Southwest 418 481 23,600 -2,400 Descending Houston Center
10:49AM 27.0142 -97.7658 212° Southwest 408 470 21,100 -2,460 Descending Houston Center
10:49AM 26.9447 -97.8172 213° Southwest 393 452 19,200 -2,340 Descending Houston Center
10:50AM 26.9206 -97.8336 211° Southwest 393 452 18,700 -2,160 Descending Houston Center
10:51AM 26.8289 -97.9006 213° Southwest 391 450 16,400 -1,380 Descending Houston Center
10:52AM 26.7372 -97.9656 212° Southwest 362 417 15,900 -1,620 Descending Houston Center
10:53AM 26.6561 -98.0314 216° Southwest 359 413 13,100 -2,700 Descending Houston Center
10:54AM 26.5792 -98.0975 218° Southwest 345 397 10,500 -2,520 Descending Houston Center
10:55AM 26.5194 -98.1497 218° Southwest 272 313 8,100 -2,400 Descending Houston Center
10:56AM 26.4578 -98.2044 218° Southwest 248 285 5,700 -2,220 Descending Houston Center
10:57AM 26.4147 -98.2681 233° Southwest 244 281 3,400 -1,740 Descending Houston Center
10:58AM 26.3653 -98.3181 222° Southwest 228 262 2,000 -660 Descending Houston Center
10:59AM 26.3275 -98.3542 221° Southwest 210 242 2,100  Climbing Houston Center
11:00AM 26.2725 -98.3289 158° South 202 232 2,000 -420 Descending Houston Center
11:01AM 26.2364 -98.2983 143° Southeast 192 221 1,400 -480 Descending Houston Center
11:01AM 26.2319 -98.2922 129° Southeast 191 220 1,500 -600 Climbing Houston Center
11:02AM 26.2106 -98.2736 142° Southeast 114 131 800 -720 Descending Houston Center
11:02AM 26.2050 -98.2672 134° Southeast 127 146 800 -180 Level Houston Center
11:03AM 26.1781 -98.2447 143° Southeast 124 143 600 -240 Descending Houston Center